sensor_id;sensor_type;location;lat;lon;timestamp;temperature;humidity
36292;DHT22;22327;51.208;6.418;2022-12-18T00:01:36;-0.80;95.10
36292;DHT22;22327;51.208;6.418;2022-12-18T00:04:04;-0.90;95.00
36292;DHT22;22327;51.208;6.418;2022-12-18T00:06:31;-0.90;95.20
36292;DHT22;22327;51.208;6.418;2022-12-18T00:08:58;-0.90;95.20
36292;DHT22;22327;51.208;6.418;2022-12-18T00:11:26;-0.90;95.20
36292;DHT22;22327;51.208;6.418;2022-12-18T00:13:54;-0.90;95.20
36292;DHT22;22327;51.208;6.418;2022-12-18T00:16:21;-0.90;95.20
36292;DHT22;22327;51.208;6.418;2022-12-18T00:18:48;-1.00;95.10
36292;DHT22;22327;51.208;6.418;2022-12-18T00:21:15;-1.00;95.20
36292;DHT22;22327;51.208;6.418;2022-12-18T00:23:42;-1.00;95.10
36292;DHT22;22327;51.208;6.418;2022-12-18T00:26:12;-1.00;95.10
36292;DHT22;22327;51.208;6.418;2022-12-18T00:28:40;-1.10;95.00
36292;DHT22;22327;51.208;6.418;2022-12-18T00:31:09;-1.10;95.10
36292;DHT22;22327;51.208;6.418;2022-12-18T00:33:35;-1.20;95.10
36292;DHT22;22327;51.208;6.418;2022-12-18T00:36:12;-1.20;95.20
36292;DHT22;22327;51.208;6.418;2022-12-18T00:38:38;-1.20;95.20
36292;DHT22;22327;51.208;6.418;2022-12-18T00:41:04;-1.20;95.10
36292;DHT22;22327;51.208;6.418;2022-12-18T00:43:30;-1.20;95.10
36292;DHT22;22327;51.208;6.418;2022-12-18T00:45:56;-1.20;95.20
36292;DHT22;22327;51.208;6.418;2022-12-18T00:48:21;-1.30;95.20
36292;DHT22;22327;51.208;6.418;2022-12-18T00:50:49;-1.20;95.20
36292;DHT22;22327;51.208;6.418;2022-12-18T00:53:14;-1.20;95.10
36292;DHT22;22327;51.208;6.418;2022-12-18T00:55:40;-1.20;95.20
36292;DHT22;22327;51.208;6.418;2022-12-18T00:58:06;-1.20;95.20
36292;DHT22;22327;51.208;6.418;2022-12-18T01:00:31;-1.20;95.20
36292;DHT22;22327;51.208;6.418;2022-12-18T01:02:57;-1.20;95.20
36292;DHT22;22327;51.208;6.418;2022-12-18T01:05:22;-1.20;95.30
36292;DHT22;22327;51.208;6.418;2022-12-18T01:07:48;-1.20;95.10
36292;DHT22;22327;51.208;6.418;2022-12-18T01:10:14;-1.20;95.20
36292;DHT22;22327;51.208;6.418;2022-12-18T01:12:40;-1.20;95.10
36292;DHT22;22327;51.208;6.418;2022-12-18T01:15:06;-1.20;95.20
36292;DHT22;22327;51.208;6.418;2022-12-18T01:17:32;-1.20;95.20
36292;DHT22;22327;51.208;6.418;2022-12-18T01:19:58;-1.20;95.20
36292;DHT22;22327;51.208;6.418;2022-12-18T01:22:24;-1.20;95.20
36292;DHT22;22327;51.208;6.418;2022-12-18T01:24:50;-1.20;95.20
36292;DHT22;22327;51.208;6.418;2022-12-18T01:27:15;-1.30;95.20
36292;DHT22;22327;51.208;6.418;2022-12-18T01:29:41;-1.30;95.30
36292;DHT22;22327;51.208;6.418;2022-12-18T01:32:06;-1.30;95.30
36292;DHT22;22327;51.208;6.418;2022-12-18T01:34:32;-1.30;95.80
36292;DHT22;22327;51.208;6.418;2022-12-18T01:36:57;-1.30;95.40
36292;DHT22;22327;51.208;6.418;2022-12-18T01:39:23;-1.30;95.40
36292;DHT22;22327;51.208;6.418;2022-12-18T01:41:49;-1.30;95.30
36292;DHT22;22327;51.208;6.418;2022-12-18T01:49:52;-1.30;95.70
36292;DHT22;22327;51.208;6.418;2022-12-18T01:52:18;-1.30;95.40
36292;DHT22;22327;51.208;6.418;2022-12-18T01:54:46;-1.30;95.20
36292;DHT22;22327;51.208;6.418;2022-12-18T01:57:12;-1.30;95.30
36292;DHT22;22327;51.208;6.418;2022-12-18T01:59:40;-1.30;95.20
36292;DHT22;22327;51.208;6.418;2022-12-18T02:02:07;-1.30;95.20
36292;DHT22;22327;51.208;6.418;2022-12-18T02:04:33;-1.30;95.20
36292;DHT22;22327;51.208;6.418;2022-12-18T02:07:52;-1.30;95.20
36292;DHT22;22327;51.208;6.418;2022-12-18T02:12:25;-1.30;95.20
36292;DHT22;22327;51.208;6.418;2022-12-18T02:17:40;-1.30;95.30
36292;DHT22;22327;51.208;6.418;2022-12-18T02:25:38;-1.30;95.20
36292;DHT22;22327;51.208;6.418;2022-12-18T02:28:08;-1.40;95.20
36292;DHT22;22327;51.208;6.418;2022-12-18T02:30:36;-1.40;95.20
36292;DHT22;22327;51.208;6.418;2022-12-18T02:33:05;-1.40;95.20
36292;DHT22;22327;51.208;6.418;2022-12-18T02:35:33;-1.30;95.30
36292;DHT22;22327;51.208;6.418;2022-12-18T02:38:00;-1.40;95.20
36292;DHT22;22327;51.208;6.418;2022-12-18T02:40:27;-1.30;95.10
36292;DHT22;22327;51.208;6.418;2022-12-18T02:42:53;-1.40;95.00
36292;DHT22;22327;51.208;6.418;2022-12-18T02:45:19;-1.30;95.10
36292;DHT22;22327;51.208;6.418;2022-12-18T02:47:48;-1.30;95.40
36292;DHT22;22327;51.208;6.418;2022-12-18T02:50:30;-1.30;95.10
36292;DHT22;22327;51.208;6.418;2022-12-18T02:56:07;-1.30;95.10
36292;DHT22;22327;51.208;6.418;2022-12-18T02:58:43;-1.30;95.20
36292;DHT22;22327;51.208;6.418;2022-12-18T03:01:15;-1.30;95.10
36292;DHT22;22327;51.208;6.418;2022-12-18T03:03:55;-1.30;95.10
36292;DHT22;22327;51.208;6.418;2022-12-18T03:06:41;-1.30;95.10
36292;DHT22;22327;51.208;6.418;2022-12-18T03:09:12;-1.30;95.10
36292;DHT22;22327;51.208;6.418;2022-12-18T03:11:42;-1.30;95.10
36292;DHT22;22327;51.208;6.418;2022-12-18T03:14:30;-1.30;95.00
36292;DHT22;22327;51.208;6.418;2022-12-18T03:17:00;-1.40;95.00
36292;DHT22;22327;51.208;6.418;2022-12-18T03:19:28;-1.40;95.10
36292;DHT22;22327;51.208;6.418;2022-12-18T03:21:57;-1.30;95.10
36292;DHT22;22327;51.208;6.418;2022-12-18T03:24:24;-1.30;95.00
36292;DHT22;22327;51.208;6.418;2022-12-18T03:26:54;-1.30;94.90
36292;DHT22;22327;51.208;6.418;2022-12-18T03:29:27;-1.30;94.90
36292;DHT22;22327;51.208;6.418;2022-12-18T03:32:10;-1.30;94.90
36292;DHT22;22327;51.208;6.418;2022-12-18T03:34:40;-1.30;94.90
36292;DHT22;22327;51.208;6.418;2022-12-18T03:37:07;-1.30;94.90
36292;DHT22;22327;51.208;6.418;2022-12-18T03:39:35;-1.30;94.90
36292;DHT22;22327;51.208;6.418;2022-12-18T03:47:29;-1.30;94.80
36292;DHT22;22327;51.208;6.418;2022-12-18T03:49:57;-1.30;94.90
36292;DHT22;22327;51.208;6.418;2022-12-18T03:52:30;-1.30;94.90
36292;DHT22;22327;51.208;6.418;2022-12-18T03:54:58;-1.30;94.80
36292;DHT22;22327;51.208;6.418;2022-12-18T03:57:28;-1.30;94.80
36292;DHT22;22327;51.208;6.418;2022-12-18T03:59:59;-1.30;94.80
36292;DHT22;22327;51.208;6.418;2022-12-18T04:02:25;-1.30;94.70
36292;DHT22;22327;51.208;6.418;2022-12-18T04:04:53;-1.30;94.70
36292;DHT22;22327;51.208;6.418;2022-12-18T04:07:21;-1.30;94.80
36292;DHT22;22327;51.208;6.418;2022-12-18T04:09:49;-1.20;94.70
36292;DHT22;22327;51.208;6.418;2022-12-18T04:12:16;-1.30;94.60
36292;DHT22;22327;51.208;6.418;2022-12-18T04:14:41;-1.30;94.60
36292;DHT22;22327;51.208;6.418;2022-12-18T04:17:07;-1.30;94.50
36292;DHT22;22327;51.208;6.418;2022-12-18T04:19:32;-1.30;94.70
36292;DHT22;22327;51.208;6.418;2022-12-18T04:21:58;-1.30;94.60
36292;DHT22;22327;51.208;6.418;2022-12-18T04:24:23;-1.30;94.60
36292;DHT22;22327;51.208;6.418;2022-12-18T04:26:49;-1.30;94.60
36292;DHT22;22327;51.208;6.418;2022-12-18T04:29:14;-1.30;94.60
36292;DHT22;22327;51.208;6.418;2022-12-18T04:31:40;-1.30;94.50
36292;DHT22;22327;51.208;6.418;2022-12-18T04:34:06;-1.30;94.60
36292;DHT22;22327;51.208;6.418;2022-12-18T04:36:31;-1.30;94.50
36292;DHT22;22327;51.208;6.418;2022-12-18T04:38:57;-1.30;94.50
36292;DHT22;22327;51.208;6.418;2022-12-18T04:41:22;-1.30;94.60
36292;DHT22;22327;51.208;6.418;2022-12-18T04:43:48;-1.30;94.60
36292;DHT22;22327;51.208;6.418;2022-12-18T04:46:13;-1.40;94.70
36292;DHT22;22327;51.208;6.418;2022-12-18T04:48:39;-1.40;94.60
36292;DHT22;22327;51.208;6.418;2022-12-18T04:51:05;-1.40;94.70
36292;DHT22;22327;51.208;6.418;2022-12-18T04:53:31;-1.40;94.60
36292;DHT22;22327;51.208;6.418;2022-12-18T04:56:04;-1.40;94.70
36292;DHT22;22327;51.208;6.418;2022-12-18T04:58:30;-1.40;94.40
36292;DHT22;22327;51.208;6.418;2022-12-18T05:00:55;-1.40;94.60
36292;DHT22;22327;51.208;6.418;2022-12-18T05:03:21;-1.40;94.40
36292;DHT22;22327;51.208;6.418;2022-12-18T05:05:50;-1.40;94.60
36292;DHT22;22327;51.208;6.418;2022-12-18T05:08:16;-1.40;94.60
36292;DHT22;22327;51.208;6.418;2022-12-18T05:10:41;-1.40;94.50
36292;DHT22;22327;51.208;6.418;2022-12-18T05:13:07;-1.40;94.50
36292;DHT22;22327;51.208;6.418;2022-12-18T05:15:33;-1.40;94.50
36292;DHT22;22327;51.208;6.418;2022-12-18T05:17:59;-1.40;94.60
36292;DHT22;22327;51.208;6.418;2022-12-18T05:20:26;-1.40;94.50
36292;DHT22;22327;51.208;6.418;2022-12-18T05:22:52;-1.40;94.60
36292;DHT22;22327;51.208;6.418;2022-12-18T05:25:18;-1.40;94.50
36292;DHT22;22327;51.208;6.418;2022-12-18T05:27:44;-1.40;94.50
36292;DHT22;22327;51.208;6.418;2022-12-18T05:30:11;-1.40;94.60
36292;DHT22;22327;51.208;6.418;2022-12-18T05:32:37;-1.40;94.60
36292;DHT22;22327;51.208;6.418;2022-12-18T05:35:04;-1.40;94.50
36292;DHT22;22327;51.208;6.418;2022-12-18T05:37:30;-1.40;94.90
36292;DHT22;22327;51.208;6.418;2022-12-18T05:39:56;-1.40;94.50
36292;DHT22;22327;51.208;6.418;2022-12-18T05:42:21;-1.40;94.60
36292;DHT22;22327;51.208;6.418;2022-12-18T05:44:47;-1.40;94.70
36292;DHT22;22327;51.208;6.418;2022-12-18T05:47:12;-1.40;94.70
36292;DHT22;22327;51.208;6.418;2022-12-18T05:49:38;-1.40;94.70
36292;DHT22;22327;51.208;6.418;2022-12-18T05:52:04;-1.40;94.60
36292;DHT22;22327;51.208;6.418;2022-12-18T05:54:29;-1.40;94.60
36292;DHT22;22327;51.208;6.418;2022-12-18T05:56:55;-1.40;94.60
36292;DHT22;22327;51.208;6.418;2022-12-18T05:59:20;-1.40;94.60
36292;DHT22;22327;51.208;6.418;2022-12-18T06:01:46;-1.40;94.60
36292;DHT22;22327;51.208;6.418;2022-12-18T06:04:12;-1.30;94.60
36292;DHT22;22327;51.208;6.418;2022-12-18T06:06:37;-1.30;94.60
36292;DHT22;22327;51.208;6.418;2022-12-18T06:09:03;-1.30;94.60
36292;DHT22;22327;51.208;6.418;2022-12-18T06:11:34;-1.30;94.60
36292;DHT22;22327;51.208;6.418;2022-12-18T06:14:00;-1.30;94.60
36292;DHT22;22327;51.208;6.418;2022-12-18T06:16:27;-1.30;94.60
36292;DHT22;22327;51.208;6.418;2022-12-18T06:18:53;-1.20;94.60
36292;DHT22;22327;51.208;6.418;2022-12-18T06:21:18;-1.30;94.50
36292;DHT22;22327;51.208;6.418;2022-12-18T06:23:44;-1.30;94.80
36292;DHT22;22327;51.208;6.418;2022-12-18T06:26:11;-1.30;94.50
36292;DHT22;22327;51.208;6.418;2022-12-18T06:28:37;-1.30;94.50
36292;DHT22;22327;51.208;6.418;2022-12-18T06:31:04;-1.40;94.30
36292;DHT22;22327;51.208;6.418;2022-12-18T06:33:29;-1.30;94.40
36292;DHT22;22327;51.208;6.418;2022-12-18T06:36:10;-1.40;94.50
36292;DHT22;22327;51.208;6.418;2022-12-18T06:38:38;-1.40;94.60
36292;DHT22;22327;51.208;6.418;2022-12-18T06:41:30;-1.40;94.50
36292;DHT22;22327;51.208;6.418;2022-12-18T06:43:57;-1.40;94.50
36292;DHT22;22327;51.208;6.418;2022-12-18T06:46:22;-1.50;94.60
36292;DHT22;22327;51.208;6.418;2022-12-18T06:48:49;-1.40;94.70
36292;DHT22;22327;51.208;6.418;2022-12-18T06:51:19;-1.40;94.70
36292;DHT22;22327;51.208;6.418;2022-12-18T06:53:45;-1.40;94.80
36292;DHT22;22327;51.208;6.418;2022-12-18T06:56:10;-1.40;94.80
36292;DHT22;22327;51.208;6.418;2022-12-18T06:58:36;-1.40;94.70
36292;DHT22;22327;51.208;6.418;2022-12-18T07:01:07;-1.50;94.70
36292;DHT22;22327;51.208;6.418;2022-12-18T07:03:34;-1.40;94.80
36292;DHT22;22327;51.208;6.418;2022-12-18T07:05:59;-1.40;94.80
36292;DHT22;22327;51.208;6.418;2022-12-18T07:08:25;-1.40;94.70
36292;DHT22;22327;51.208;6.418;2022-12-18T07:10:50;-1.40;94.70
36292;DHT22;22327;51.208;6.418;2022-12-18T07:13:16;-1.40;94.80
36292;DHT22;22327;51.208;6.418;2022-12-18T07:15:43;-1.40;94.80
36292;DHT22;22327;51.208;6.418;2022-12-18T07:18:09;-1.30;94.80
36292;DHT22;22327;51.208;6.418;2022-12-18T07:20:34;-1.30;94.70
36292;DHT22;22327;51.208;6.418;2022-12-18T07:23:02;-1.30;94.70
36292;DHT22;22327;51.208;6.418;2022-12-18T07:25:28;-1.30;94.70
36292;DHT22;22327;51.208;6.418;2022-12-18T07:27:54;-1.20;94.70
36292;DHT22;22327;51.208;6.418;2022-12-18T07:30:19;-1.20;94.60
36292;DHT22;22327;51.208;6.418;2022-12-18T07:32:45;-1.20;94.50
36292;DHT22;22327;51.208;6.418;2022-12-18T07:35:12;-1.20;94.50
36292;DHT22;22327;51.208;6.418;2022-12-18T07:37:37;-1.20;94.50
36292;DHT22;22327;51.208;6.418;2022-12-18T07:40:03;-1.20;94.50
36292;DHT22;22327;51.208;6.418;2022-12-18T07:42:29;-1.20;94.40
36292;DHT22;22327;51.208;6.418;2022-12-18T07:44:58;-1.20;94.50
36292;DHT22;22327;51.208;6.418;2022-12-18T07:47:24;-1.10;94.40
36292;DHT22;22327;51.208;6.418;2022-12-18T07:49:49;-1.10;94.40
36292;DHT22;22327;51.208;6.418;2022-12-18T07:52:15;-1.10;94.50
36292;DHT22;22327;51.208;6.418;2022-12-18T07:54:41;-1.00;94.40
36292;DHT22;22327;51.208;6.418;2022-12-18T07:57:07;-1.00;94.40
36292;DHT22;22327;51.208;6.418;2022-12-18T07:59:33;-1.00;94.40
36292;DHT22;22327;51.208;6.418;2022-12-18T08:01:58;-0.80;94.30
36292;DHT22;22327;51.208;6.418;2022-12-18T08:04:24;-0.70;94.10
36292;DHT22;22327;51.208;6.418;2022-12-18T08:06:50;-0.50;93.90
36292;DHT22;22327;51.208;6.418;2022-12-18T08:09:16;-0.50;93.50
36292;DHT22;22327;51.208;6.418;2022-12-18T08:11:41;-0.40;93.30
36292;DHT22;22327;51.208;6.418;2022-12-18T08:14:07;-0.40;93.30
36292;DHT22;22327;51.208;6.418;2022-12-18T08:16:32;-0.40;93.30
36292;DHT22;22327;51.208;6.418;2022-12-18T08:18:58;-0.40;93.20
36292;DHT22;22327;51.208;6.418;2022-12-18T08:21:27;-0.30;93.30
36292;DHT22;22327;51.208;6.418;2022-12-18T08:23:54;-0.20;93.10
36292;DHT22;22327;51.208;6.418;2022-12-18T08:26:20;0.00;93.00
36292;DHT22;22327;51.208;6.418;2022-12-18T08:28:46;0.10;92.60
36292;DHT22;22327;51.208;6.418;2022-12-18T08:31:11;0.20;92.40
36292;DHT22;22327;51.208;6.418;2022-12-18T08:33:38;0.30;92.10
36292;DHT22;22327;51.208;6.418;2022-12-18T08:36:05;0.30;92.10
36292;DHT22;22327;51.208;6.418;2022-12-18T08:38:32;0.50;92.10
36292;DHT22;22327;51.208;6.418;2022-12-18T08:41:02;0.60;91.70
36292;DHT22;22327;51.208;6.418;2022-12-18T08:43:28;0.60;91.60
36292;DHT22;22327;51.208;6.418;2022-12-18T08:46:12;0.80;91.40
36292;DHT22;22327;51.208;6.418;2022-12-18T08:48:38;0.80;91.20
36292;DHT22;22327;51.208;6.418;2022-12-18T08:51:03;0.90;91.40
36292;DHT22;22327;51.208;6.418;2022-12-18T08:53:29;1.00;91.00
36292;DHT22;22327;51.208;6.418;2022-12-18T08:55:56;1.10;90.90
36292;DHT22;22327;51.208;6.418;2022-12-18T08:58:21;1.20;90.70
36292;DHT22;22327;51.208;6.418;2022-12-18T09:00:47;1.30;90.40
36292;DHT22;22327;51.208;6.418;2022-12-18T09:03:13;1.30;90.50
36292;DHT22;22327;51.208;6.418;2022-12-18T09:05:39;1.40;90.10
36292;DHT22;22327;51.208;6.418;2022-12-18T09:08:05;1.40;90.10
36292;DHT22;22327;51.208;6.418;2022-12-18T09:10:31;1.40;90.00
36292;DHT22;22327;51.208;6.418;2022-12-18T09:12:57;1.40;90.10
36292;DHT22;22327;51.208;6.418;2022-12-18T09:15:22;1.30;90.00
36292;DHT22;22327;51.208;6.418;2022-12-18T09:17:48;1.30;90.30
36292;DHT22;22327;51.208;6.418;2022-12-18T09:20:15;1.50;90.10
36292;DHT22;22327;51.208;6.418;2022-12-18T09:22:41;1.50;90.00
36292;DHT22;22327;51.208;6.418;2022-12-18T09:25:07;1.50;89.40
36292;DHT22;22327;51.208;6.418;2022-12-18T09:27:33;1.40;89.50
36292;DHT22;22327;51.208;6.418;2022-12-18T09:29:59;1.30;90.20
36292;DHT22;22327;51.208;6.418;2022-12-18T09:32:25;1.30;90.30
36292;DHT22;22327;51.208;6.418;2022-12-18T09:34:50;1.30;90.10
36292;DHT22;22327;51.208;6.418;2022-12-18T09:37:16;1.30;90.30
36292;DHT22;22327;51.208;6.418;2022-12-18T09:39:41;1.30;90.30
36292;DHT22;22327;51.208;6.418;2022-12-18T09:42:21;1.20;90.40
36292;DHT22;22327;51.208;6.418;2022-12-18T09:44:52;1.20;90.50
36292;DHT22;22327;51.208;6.418;2022-12-18T09:47:23;1.30;90.40
36292;DHT22;22327;51.208;6.418;2022-12-18T09:49:54;1.30;90.50
36292;DHT22;22327;51.208;6.418;2022-12-18T09:52:36;1.30;90.50
36292;DHT22;22327;51.208;6.418;2022-12-18T09:57:55;1.40;90.30
36292;DHT22;22327;51.208;6.418;2022-12-18T10:00:23;1.30;90.30
36292;DHT22;22327;51.208;6.418;2022-12-18T10:02:56;1.30;90.40
36292;DHT22;22327;51.208;6.418;2022-12-18T10:11:15;1.50;90.30
36292;DHT22;22327;51.208;6.418;2022-12-18T10:13:46;1.60;90.20
36292;DHT22;22327;51.208;6.418;2022-12-18T10:16:19;1.60;90.10
36292;DHT22;22327;51.208;6.418;2022-12-18T10:19:17;1.60;90.20
36292;DHT22;22327;51.208;6.418;2022-12-18T10:26:49;1.80;90.00
36292;DHT22;22327;51.208;6.418;2022-12-18T10:29:16;1.80;89.20
36292;DHT22;22327;51.208;6.418;2022-12-18T10:31:42;1.80;89.20
36292;DHT22;22327;51.208;6.418;2022-12-18T10:34:11;1.80;89.40
36292;DHT22;22327;51.208;6.418;2022-12-18T10:36:37;1.90;89.40
36292;DHT22;22327;51.208;6.418;2022-12-18T10:39:23;1.90;89.20
36292;DHT22;22327;51.208;6.418;2022-12-18T10:41:49;1.90;89.40
36292;DHT22;22327;51.208;6.418;2022-12-18T10:44:22;1.90;89.50
36292;DHT22;22327;51.208;6.418;2022-12-18T10:46:50;2.00;89.20
36292;DHT22;22327;51.208;6.418;2022-12-18T10:49:30;2.10;89.30
36292;DHT22;22327;51.208;6.418;2022-12-18T10:52:16;2.10;89.20
36292;DHT22;22327;51.208;6.418;2022-12-18T10:54:48;2.20;88.50
36292;DHT22;22327;51.208;6.418;2022-12-18T10:59:58;2.30;88.30
36292;DHT22;22327;51.208;6.418;2022-12-18T11:02:44;2.30;88.30
36292;DHT22;22327;51.208;6.418;2022-12-18T11:05:29;2.40;88.10
36292;DHT22;22327;51.208;6.418;2022-12-18T11:07:56;2.50;88.30
36292;DHT22;22327;51.208;6.418;2022-12-18T11:10:32;2.60;87.60
36292;DHT22;22327;51.208;6.418;2022-12-18T11:13:18;2.60;87.10
36292;DHT22;22327;51.208;6.418;2022-12-18T11:15:45;2.60;86.30
36292;DHT22;22327;51.208;6.418;2022-12-18T11:18:18;2.50;87.10
36292;DHT22;22327;51.208;6.418;2022-12-18T11:21:00;2.60;87.00
36292;DHT22;22327;51.208;6.418;2022-12-18T11:23:30;2.60;87.10
36292;DHT22;22327;51.208;6.418;2022-12-18T11:25:58;2.60;86.50
36292;DHT22;22327;51.208;6.418;2022-12-18T11:28:51;2.60;86.80
36292;DHT22;22327;51.208;6.418;2022-12-18T11:31:27;2.60;86.20
36292;DHT22;22327;51.208;6.418;2022-12-18T11:36:32;2.60;86.70
36292;DHT22;22327;51.208;6.418;2022-12-18T11:39:05;2.60;86.60
36292;DHT22;22327;51.208;6.418;2022-12-18T11:41:41;2.60;87.00
36292;DHT22;22327;51.208;6.418;2022-12-18T11:44:35;2.60;87.00
36292;DHT22;22327;51.208;6.418;2022-12-18T11:47:17;2.60;87.10
36292;DHT22;22327;51.208;6.418;2022-12-18T11:49:47;2.70;87.50
36292;DHT22;22327;51.208;6.418;2022-12-18T11:52:27;2.70;87.00
36292;DHT22;22327;51.208;6.418;2022-12-18T11:54:58;2.70;87.00
36292;DHT22;22327;51.208;6.418;2022-12-18T12:00:15;2.70;86.90
36292;DHT22;22327;51.208;6.418;2022-12-18T12:06:08;2.70;86.60
36292;DHT22;22327;51.208;6.418;2022-12-18T12:08:54;2.80;87.00
36292;DHT22;22327;51.208;6.418;2022-12-18T12:11:49;2.80;86.50
36292;DHT22;22327;51.208;6.418;2022-12-18T12:14:51;2.80;86.70
36292;DHT22;22327;51.208;6.418;2022-12-18T12:22:48;2.90;86.60
36292;DHT22;22327;51.208;6.418;2022-12-18T12:37:25;2.90;86.40
36292;DHT22;22327;51.208;6.418;2022-12-18T12:39:53;2.90;86.40
36292;DHT22;22327;51.208;6.418;2022-12-18T12:42:29;2.90;85.90
36292;DHT22;22327;51.208;6.418;2022-12-18T12:45:42;3.00;86.00
36292;DHT22;22327;51.208;6.418;2022-12-18T12:48:32;3.00;86.50
36292;DHT22;22327;51.208;6.418;2022-12-18T12:51:04;3.00;86.20
36292;DHT22;22327;51.208;6.418;2022-12-18T12:53:37;3.00;86.10
36292;DHT22;22327;51.208;6.418;2022-12-18T12:56:04;3.10;86.30
36292;DHT22;22327;51.208;6.418;2022-12-18T12:58:45;3.10;86.20
36292;DHT22;22327;51.208;6.418;2022-12-18T13:07:08;3.20;85.90
36292;DHT22;22327;51.208;6.418;2022-12-18T13:12:56;3.20;85.20
36292;DHT22;22327;51.208;6.418;2022-12-18T13:17:48;3.10;85.50
36292;DHT22;22327;51.208;6.418;2022-12-18T13:20:15;3.20;85.30
36292;DHT22;22327;51.208;6.418;2022-12-18T13:22:48;3.30;85.30
36292;DHT22;22327;51.208;6.418;2022-12-18T13:25:35;3.30;84.80
36292;DHT22;22327;51.208;6.418;2022-12-18T13:48:36;3.10;85.50
36292;DHT22;22327;51.208;6.418;2022-12-18T13:51:05;3.20;85.40
36292;DHT22;22327;51.208;6.418;2022-12-18T13:56:33;3.10;85.30
36292;DHT22;22327;51.208;6.418;2022-12-18T13:59:21;3.10;85.60
36292;DHT22;22327;51.208;6.418;2022-12-18T14:04:22;3.00;85.40
36292;DHT22;22327;51.208;6.418;2022-12-18T14:06:51;3.00;85.20
36292;DHT22;22327;51.208;6.418;2022-12-18T14:10:02;3.00;85.20
36292;DHT22;22327;51.208;6.418;2022-12-18T14:12:22;3.00;85.20
36292;DHT22;22327;51.208;6.418;2022-12-18T14:15:41;3.00;85.10
36292;DHT22;22327;51.208;6.418;2022-12-18T14:20:45;2.90;85.40
36292;DHT22;22327;51.208;6.418;2022-12-18T14:23:34;2.90;85.20
36292;DHT22;22327;51.208;6.418;2022-12-18T14:26:18;2.90;85.20
36292;DHT22;22327;51.208;6.418;2022-12-18T14:28:44;2.80;85.70
36292;DHT22;22327;51.208;6.418;2022-12-18T14:31:18;2.90;85.40
36292;DHT22;22327;51.208;6.418;2022-12-18T14:33:43;2.90;85.60
36292;DHT22;22327;51.208;6.418;2022-12-18T14:36:16;2.80;85.40
36292;DHT22;22327;51.208;6.418;2022-12-18T14:38:42;2.80;85.30
36292;DHT22;22327;51.208;6.418;2022-12-18T14:41:13;2.80;85.80
36292;DHT22;22327;51.208;6.418;2022-12-18T14:43:41;2.70;85.60
36292;DHT22;22327;51.208;6.418;2022-12-18T14:49:03;2.70;86.00
36292;DHT22;22327;51.208;6.418;2022-12-18T14:51:32;2.70;86.00
36292;DHT22;22327;51.208;6.418;2022-12-18T14:54:03;2.70;85.70
36292;DHT22;22327;51.208;6.418;2022-12-18T14:56:37;2.70;86.20
36292;DHT22;22327;51.208;6.418;2022-12-18T14:59:20;2.60;86.20
36292;DHT22;22327;51.208;6.418;2022-12-18T15:04:39;2.60;86.50
36292;DHT22;22327;51.208;6.418;2022-12-18T15:07:12;2.60;86.50
36292;DHT22;22327;51.208;6.418;2022-12-18T15:09:40;2.60;86.70
36292;DHT22;22327;51.208;6.418;2022-12-18T15:12:23;2.60;86.60
36292;DHT22;22327;51.208;6.418;2022-12-18T15:14:49;2.60;87.00
36292;DHT22;22327;51.208;6.418;2022-12-18T15:17:21;2.60;86.90
36292;DHT22;22327;51.208;6.418;2022-12-18T15:19:49;2.60;86.60
36292;DHT22;22327;51.208;6.418;2022-12-18T15:22:30;2.60;86.90
36292;DHT22;22327;51.208;6.418;2022-12-18T15:24:59;2.60;87.00
36292;DHT22;22327;51.208;6.418;2022-12-18T15:27:30;2.50;86.80
36292;DHT22;22327;51.208;6.418;2022-12-18T15:32:36;2.60;87.20
36292;DHT22;22327;51.208;6.418;2022-12-18T15:35:24;2.60;87.10
36292;DHT22;22327;51.208;6.418;2022-12-18T15:37:51;2.60;87.50
36292;DHT22;22327;51.208;6.418;2022-12-18T15:40:20;2.60;87.30
36292;DHT22;22327;51.208;6.418;2022-12-18T15:42:46;2.60;87.10
36292;DHT22;22327;51.208;6.418;2022-12-18T15:45:31;2.60;87.20
36292;DHT22;22327;51.208;6.418;2022-12-18T15:47:56;2.60;87.20
36292;DHT22;22327;51.208;6.418;2022-12-18T15:50:22;2.60;87.30
36292;DHT22;22327;51.208;6.418;2022-12-18T15:52:50;2.60;87.40
36292;DHT22;22327;51.208;6.418;2022-12-18T15:55:19;2.60;87.60
36292;DHT22;22327;51.208;6.418;2022-12-18T15:58:05;2.60;87.70
36292;DHT22;22327;51.208;6.418;2022-12-18T16:00:33;2.60;87.70
36292;DHT22;22327;51.208;6.418;2022-12-18T16:03:00;2.70;87.90
36292;DHT22;22327;51.208;6.418;2022-12-18T16:05:26;2.70;87.90
36292;DHT22;22327;51.208;6.418;2022-12-18T16:07:52;2.70;87.90
36292;DHT22;22327;51.208;6.418;2022-12-18T16:10:19;2.70;87.70
36292;DHT22;22327;51.208;6.418;2022-12-18T16:12:45;2.70;87.90
36292;DHT22;22327;51.208;6.418;2022-12-18T16:15:13;2.70;88.00
36292;DHT22;22327;51.208;6.418;2022-12-18T16:17:39;2.80;87.70
36292;DHT22;22327;51.208;6.418;2022-12-18T16:20:16;2.70;87.70
36292;DHT22;22327;51.208;6.418;2022-12-18T16:22:43;2.70;88.00
36292;DHT22;22327;51.208;6.418;2022-12-18T16:25:26;2.70;88.20
36292;DHT22;22327;51.208;6.418;2022-12-18T16:27:53;2.60;88.20
36292;DHT22;22327;51.208;6.418;2022-12-18T16:30:26;2.60;88.50
36292;DHT22;22327;51.208;6.418;2022-12-18T16:33:02;2.60;88.40
36292;DHT22;22327;51.208;6.418;2022-12-18T16:35:27;2.60;88.50
36292;DHT22;22327;51.208;6.418;2022-12-18T16:37:53;2.60;88.80
36292;DHT22;22327;51.208;6.418;2022-12-18T16:40:18;2.60;88.60
36292;DHT22;22327;51.208;6.418;2022-12-18T16:42:45;2.70;88.70
36292;DHT22;22327;51.208;6.418;2022-12-18T16:45:13;2.70;88.30
36292;DHT22;22327;51.208;6.418;2022-12-18T16:47:40;2.70;88.50
36292;DHT22;22327;51.208;6.418;2022-12-18T16:50:06;2.70;88.60
36292;DHT22;22327;51.208;6.418;2022-12-18T16:52:32;2.60;88.60
36292;DHT22;22327;51.208;6.418;2022-12-18T16:54:58;2.60;88.40
36292;DHT22;22327;51.208;6.418;2022-12-18T16:57:23;2.60;88.50
36292;DHT22;22327;51.208;6.418;2022-12-18T16:59:49;2.60;88.90
36292;DHT22;22327;51.208;6.418;2022-12-18T17:02:23;2.60;88.90
36292;DHT22;22327;51.208;6.418;2022-12-18T17:04:49;2.60;88.80
36292;DHT22;22327;51.208;6.418;2022-12-18T17:07:17;2.60;89.10
36292;DHT22;22327;51.208;6.418;2022-12-18T17:09:42;2.60;89.30
36292;DHT22;22327;51.208;6.418;2022-12-18T17:12:08;2.60;89.50
36292;DHT22;22327;51.208;6.418;2022-12-18T17:14:35;2.60;89.30
36292;DHT22;22327;51.208;6.418;2022-12-18T17:17:01;2.60;89.30
36292;DHT22;22327;51.208;6.418;2022-12-18T17:19:27;2.60;89.50
36292;DHT22;22327;51.208;6.418;2022-12-18T17:21:53;2.60;89.80
36292;DHT22;22327;51.208;6.418;2022-12-18T17:24:19;2.60;89.70
36292;DHT22;22327;51.208;6.418;2022-12-18T17:26:45;2.60;90.00
36292;DHT22;22327;51.208;6.418;2022-12-18T17:29:16;2.60;90.00
36292;DHT22;22327;51.208;6.418;2022-12-18T17:31:42;2.60;90.10
36292;DHT22;22327;51.208;6.418;2022-12-18T17:34:09;2.60;90.20
36292;DHT22;22327;51.208;6.418;2022-12-18T17:36:35;2.60;90.10
36292;DHT22;22327;51.208;6.418;2022-12-18T17:39:03;2.70;90.20
36292;DHT22;22327;51.208;6.418;2022-12-18T17:41:29;2.60;90.20
36292;DHT22;22327;51.208;6.418;2022-12-18T17:44:04;2.60;90.20
36292;DHT22;22327;51.208;6.418;2022-12-18T17:46:31;2.60;90.50
36292;DHT22;22327;51.208;6.418;2022-12-18T17:48:58;2.60;90.40